createdAt,value
2023-05-05T00:01:08.526Z,5.05
2023-05-05T00:03:35.653Z,5.15
2023-05-05T00:06:02.756Z,5.20
2023-05-05T00:08:29.253Z,4.75
2023-05-05T00:10:56.525Z,5.20
2023-05-05T00:13:23.514Z,5.38
2023-05-05T00:15:52.378Z,5.38
2023-05-05T00:18:19.804Z,5.38
2023-05-05T00:20:47.332Z,5.47
2023-05-05T00:23:14.839Z,5.75
2023-05-05T00:25:41.579Z,5.15
2023-05-05T00:28:08.103Z,5.53
2023-05-05T00:30:37.253Z,5.25
2023-05-05T00:33:03.873Z,5.43
2023-05-05T00:35:30.394Z,5.93
2023-05-05T00:37:56.878Z,5.70
2023-05-05T00:40:23.518Z,6.18
2023-05-05T00:42:52.566Z,5.95
2023-05-05T00:45:19.985Z,5.35
2023-05-05T00:47:49.183Z,5.68
2023-05-05T00:50:25.898Z,5.30
2023-05-05T00:53:10.576Z,5.00
2023-05-05T00:55:37.132Z,5.50
2023-05-05T00:58:06.457Z,5.38
2023-05-05T01:00:33.356Z,5.13
2023-05-05T01:02:59.958Z,4.70
2023-05-05T01:05:38.419Z,4.95
2023-05-05T01:08:07.900Z,5.20
2023-05-05T01:10:59.232Z,5.97
2023-05-05T01:13:42.604Z,5.88
2023-05-05T01:16:18.335Z,5.53
2023-05-05T01:19:03.014Z,5.57
2023-05-05T01:21:36.105Z,6.20
2023-05-05T01:24:11.623Z,6.15
2023-05-05T01:27:09.413Z,5.78
2023-05-05T01:30:00.896Z,5.68
2023-05-05T01:32:29.954Z,5.93
2023-05-05T01:35:01.952Z,6.00
2023-05-05T01:37:54.286Z,5.57
2023-05-05T01:40:25.969Z,5.57
2023-05-05T01:45:24.797Z,5.70
2023-05-05T01:47:53.497Z,5.75
2023-05-05T01:50:21.295Z,5.88
2023-05-05T01:52:48.768Z,6.28
2023-05-05T01:55:18.286Z,5.63
2023-05-05T01:57:47.138Z,5.82
2023-05-05T02:00:15.458Z,5.78
2023-05-05T02:02:45.074Z,5.35
2023-05-05T02:05:13.070Z,5.57
2023-05-05T02:07:39.817Z,6.15
2023-05-05T02:10:08.229Z,6.47
2023-05-05T02:12:37.069Z,5.50
2023-05-05T02:15:05.368Z,5.50
2023-05-05T02:17:32.707Z,5.72
2023-05-05T02:20:02.007Z,6.03
2023-05-05T02:22:28.770Z,5.55
2023-05-05T02:24:55.420Z,5.28
2023-05-05T02:27:23.887Z,5.70
2023-05-05T02:29:58.555Z,5.47
2023-05-05T02:32:33.981Z,5.53
2023-05-05T02:35:15.475Z,4.90
2023-05-05T02:37:49.035Z,5.18
2023-05-05T02:40:22.372Z,5.15
2023-05-05T02:42:51.322Z,5.25
2023-05-05T02:45:21.479Z,4.65
2023-05-05T02:47:49.478Z,4.82
2023-05-05T02:50:16.186Z,5.25
2023-05-05T02:52:51.864Z,5.50
2023-05-05T02:55:20.166Z,5.28
2023-05-05T02:57:52.773Z,5.13
2023-05-05T03:00:23.976Z,5.35
2023-05-05T03:03:16.286Z,5.10
2023-05-05T03:06:07.324Z,4.45
2023-05-05T03:08:44.385Z,4.53
2023-05-05T03:11:32.106Z,4.32
2023-05-05T03:14:21.006Z,4.68
2023-05-05T03:16:49.847Z,4.18
2023-05-05T03:19:19.319Z,5.10
2023-05-05T03:21:48.594Z,4.20
2023-05-05T03:24:17.160Z,4.78
2023-05-05T03:26:49.931Z,4.05
2023-05-05T03:29:19.758Z,4.40
2023-05-05T03:31:46.389Z,4.05
2023-05-05T03:34:13.581Z,4.20
2023-05-05T03:36:45.718Z,4.18
2023-05-05T03:39:14.623Z,4.18
2023-05-05T03:41:41.297Z,4.38
2023-05-05T03:44:09.614Z,3.88
2023-05-05T03:46:36.908Z,4.13
2023-05-05T03:49:05.133Z,4.28
2023-05-05T03:51:32.590Z,4.20
2023-05-05T03:53:59.665Z,4.68
2023-05-05T03:56:26.771Z,3.85
2023-05-05T03:58:53.246Z,3.90
2023-05-05T04:01:19.748Z,4.15
2023-05-05T04:03:46.465Z,4.78
2023-05-05T04:06:13.070Z,3.65
2023-05-05T04:08:39.530Z,4.53
2023-05-05T04:11:05.978Z,3.88
2023-05-05T04:13:34.041Z,3.70
2023-05-05T04:16:01.928Z,4.03
2023-05-05T04:18:28.962Z,4.18
2023-05-05T04:20:55.450Z,3.88
2023-05-05T04:23:22.635Z,3.97
2023-05-05T04:25:49.802Z,3.72
2023-05-05T04:28:16.355Z,3.97
2023-05-05T04:30:42.786Z,3.72
2023-05-05T04:33:09.331Z,3.60
2023-05-05T04:35:35.872Z,3.63
2023-05-05T04:38:02.388Z,4.10
2023-05-05T04:40:28.908Z,3.70
2023-05-05T04:42:57.098Z,3.85
2023-05-05T04:45:23.757Z,3.58
2023-05-05T04:47:50.393Z,3.45
2023-05-05T04:50:16.908Z,3.50
2023-05-05T04:52:43.383Z,3.45
2023-05-05T04:55:10.636Z,3.10
2023-05-05T04:57:37.270Z,3.97
2023-05-05T05:00:05.244Z,3.47
2023-05-05T05:02:32.261Z,3.55
2023-05-05T05:04:58.735Z,3.90
2023-05-05T05:07:26.001Z,3.72
2023-05-05T05:09:52.549Z,3.65
2023-05-05T05:12:19.263Z,3.58
2023-05-05T05:14:45.855Z,3.78
2023-05-05T05:17:12.418Z,4.13
2023-05-05T05:19:39.172Z,3.45
2023-05-05T05:22:05.726Z,3.80
2023-05-05T05:24:36.403Z,2.85
2023-05-05T05:27:03.168Z,2.92
2023-05-05T05:29:29.983Z,2.78
2023-05-05T05:31:59.379Z,2.58
2023-05-05T05:34:26.007Z,3.45
2023-05-05T05:36:52.688Z,2.10
2023-05-05T05:39:19.371Z,2.05
2023-05-05T05:41:45.818Z,2.10
2023-05-05T05:44:12.549Z,2.47
2023-05-05T05:46:39.199Z,2.10
2023-05-05T05:49:06.002Z,2.70
2023-05-05T05:51:32.523Z,2.45
2023-05-05T05:53:59.104Z,2.55
2023-05-05T05:56:25.942Z,1.88
2023-05-05T05:58:52.922Z,2.58
2023-05-05T06:01:19.766Z,2.50
2023-05-05T06:03:46.959Z,1.60
2023-05-05T06:06:13.576Z,1.90
2023-05-05T06:08:40.114Z,1.95
2023-05-05T06:11:06.736Z,2.50
2023-05-05T06:13:34.075Z,2.17
2023-05-05T06:16:00.758Z,1.40
2023-05-05T06:18:27.685Z,1.38
2023-05-05T06:20:54.124Z,1.33
2023-05-05T06:23:25.103Z,1.65
2023-05-05T06:25:57.111Z,1.65
2023-05-05T06:28:23.627Z,1.67
2023-05-05T06:30:50.005Z,1.42
2023-05-05T06:33:16.505Z,1.60
2023-05-05T06:35:42.927Z,1.70
2023-05-05T06:38:09.771Z,1.90
2023-05-05T06:40:36.275Z,1.77
2023-05-05T06:43:02.729Z,1.50
2023-05-05T06:45:34.956Z,1.73
2023-05-05T06:48:01.513Z,1.55
2023-05-05T06:50:28.261Z,1.27
2023-05-05T06:52:54.720Z,1.50
2023-05-05T06:55:21.467Z,1.50
2023-05-05T06:57:48.858Z,1.25
2023-05-05T07:00:16.838Z,1.85
2023-05-05T07:02:43.494Z,1.15
2023-05-05T07:05:10.426Z,1.17
2023-05-05T07:07:37.136Z,1.40
2023-05-05T07:10:03.790Z,1.27
2023-05-05T07:12:33.213Z,1.38
2023-05-05T07:15:00.702Z,1.38
2023-05-05T07:17:29.604Z,1.30
2023-05-05T07:19:56.064Z,1.50
2023-05-05T07:22:22.544Z,1.30
2023-05-05T07:24:49.811Z,1.50
2023-05-05T07:27:17.748Z,1.10
2023-05-05T07:29:44.232Z,1.20
2023-05-05T07:32:10.825Z,1.20
2023-05-05T07:34:37.982Z,1.25
2023-05-05T07:37:05.106Z,1.40
2023-05-05T07:39:32.022Z,1.33
2023-05-05T07:41:58.593Z,1.52
2023-05-05T07:44:25.600Z,2.20
2023-05-05T07:46:52.018Z,1.60
2023-05-05T07:49:19.580Z,1.60
2023-05-05T07:51:46.274Z,1.50
2023-05-05T07:54:12.755Z,1.38
2023-05-05T07:56:39.246Z,1.85
2023-05-05T07:59:05.849Z,1.90
2023-05-05T08:01:32.325Z,1.90
2023-05-05T08:03:58.886Z,1.80
2023-05-05T08:06:27.708Z,2.05
2023-05-05T08:08:55.233Z,1.80
2023-05-05T08:11:22.055Z,2.10
2023-05-05T08:13:48.850Z,1.60
2023-05-05T08:16:15.682Z,1.70
2023-05-05T08:18:42.939Z,1.83
2023-05-05T08:21:10.198Z,2.95
2023-05-05T08:23:37.707Z,2.70
2023-05-05T08:26:11.889Z,2.00
2023-05-05T08:28:38.361Z,2.58
2023-05-05T08:31:06.492Z,2.92
2023-05-05T08:33:32.952Z,1.40
2023-05-05T08:35:59.415Z,1.77
2023-05-05T08:38:25.895Z,2.00
2023-05-05T08:40:52.886Z,1.48
2023-05-05T08:43:22.631Z,1.85
2023-05-05T08:45:49.766Z,1.85
2023-05-05T08:48:19.374Z,1.38
2023-05-05T08:50:51.515Z,1.70
2023-05-05T08:53:44.184Z,1.85
2023-05-05T08:56:14.509Z,1.58
2023-05-05T08:58:42.897Z,2.03
2023-05-05T09:01:10.692Z,1.67
2023-05-05T09:03:38.655Z,1.73
2023-05-05T09:06:05.764Z,1.67
2023-05-05T09:08:33.270Z,1.88
2023-05-05T09:11:02.087Z,1.60
2023-05-05T09:13:31.010Z,1.85
2023-05-05T09:16:00.428Z,1.90
2023-05-05T09:18:27.130Z,1.80
2023-05-05T09:20:53.564Z,1.80
2023-05-05T09:23:21.372Z,1.73
2023-05-05T09:26:04.291Z,1.80
2023-05-05T09:28:31.332Z,1.52
2023-05-05T09:31:12.661Z,1.80
2023-05-05T09:33:39.288Z,1.92
2023-05-05T09:36:06.158Z,2.03
2023-05-05T09:38:33.032Z,2.72
2023-05-05T09:40:59.441Z,2.15
2023-05-05T09:43:26.066Z,2.17
2023-05-05T09:46:07.352Z,2.10
2023-05-05T09:48:33.897Z,2.08
2023-05-05T09:51:00.666Z,2.15
2023-05-05T09:53:37.666Z,2.05
2023-05-05T09:56:04.362Z,2.40
2023-05-05T09:58:31.301Z,2.10
2023-05-05T10:00:58.836Z,3.28
2023-05-05T10:03:26.084Z,3.80
2023-05-05T10:05:55.683Z,3.42
2023-05-05T10:08:25.021Z,2.85
2023-05-05T10:10:56.553Z,2.78
2023-05-05T10:13:24.907Z,2.22
2023-05-05T10:15:56.553Z,2.42
2023-05-05T10:18:25.138Z,2.33
2023-05-05T10:21:04.329Z,2.85
2023-05-05T10:23:48.753Z,2.17
2023-05-05T10:26:17.044Z,2.70
2023-05-05T10:29:01.342Z,2.60
2023-05-05T10:31:36.276Z,2.22
2023-05-05T10:34:26.997Z,2.28
2023-05-05T10:36:55.092Z,2.22
2023-05-05T10:39:23.541Z,2.40
2023-05-05T10:41:51.601Z,2.40
2023-05-05T10:44:18.219Z,2.13
2023-05-05T10:46:45.126Z,2.58
2023-05-05T10:49:25.063Z,2.38
2023-05-05T10:52:00.751Z,2.35
2023-05-05T10:54:38.251Z,2.42
2023-05-05T10:57:07.072Z,3.45
2023-05-05T10:59:36.704Z,2.20
2023-05-05T11:02:21.375Z,2.13
2023-05-05T11:05:07.107Z,2.92
2023-05-05T11:07:34.431Z,2.58
2023-05-05T11:10:03.291Z,1.90
2023-05-05T11:12:32.199Z,2.10
2023-05-05T11:15:33.509Z,1.75
2023-05-05T11:18:07.003Z,1.55
2023-05-05T11:20:37.583Z,1.63
2023-05-05T11:23:04.313Z,1.55
2023-05-05T11:25:37.886Z,2.00
2023-05-05T11:28:11.125Z,1.67
2023-05-05T11:30:56.129Z,1.70
2023-05-05T11:33:29.113Z,1.88
2023-05-05T11:36:09.808Z,1.58
2023-05-05T11:38:36.267Z,1.73
2023-05-05T11:41:12.690Z,1.55
2023-05-05T11:43:40.021Z,1.75
2023-05-05T11:46:16.761Z,1.33
2023-05-05T11:48:46.679Z,1.90
2023-05-05T11:51:17.318Z,1.73
2023-05-05T11:53:44.521Z,1.67
2023-05-05T11:56:12.590Z,1.80
2023-05-05T11:58:39.233Z,1.60
2023-05-05T12:01:08.950Z,2.00
2023-05-05T12:03:36.889Z,1.50
2023-05-05T12:06:04.562Z,1.60
2023-05-05T12:08:37.684Z,1.77
2023-05-05T12:11:06.500Z,1.58
2023-05-05T12:13:33.085Z,1.85
2023-05-05T12:16:09.466Z,1.70
2023-05-05T12:18:36.028Z,1.80
2023-05-05T12:21:12.526Z,2.28
2023-05-05T12:23:39.137Z,1.90
2023-05-05T12:26:05.660Z,2.97
2023-05-05T12:28:46.414Z,1.80
2023-05-05T12:31:13.409Z,1.63
2023-05-05T12:33:41.132Z,1.73
2023-05-05T12:36:08.738Z,1.90
2023-05-05T12:38:36.124Z,1.98
2023-05-05T12:41:02.655Z,1.70
2023-05-05T12:43:34.146Z,1.30
2023-05-05T12:46:06.296Z,1.73
2023-05-05T12:48:34.133Z,1.50
2023-05-05T12:51:21.052Z,1.42
2023-05-05T12:53:48.492Z,1.70
2023-05-05T12:56:34.009Z,1.42
2023-05-05T12:59:05.748Z,1.40
2023-05-05T13:01:32.981Z,1.83
2023-05-05T13:04:14.993Z,1.58
2023-05-05T13:06:46.469Z,1.70
2023-05-05T13:09:24.051Z,1.70
2023-05-05T13:11:50.667Z,1.25
2023-05-05T13:14:17.150Z,1.40
2023-05-05T13:16:43.686Z,1.60
2023-05-05T13:19:10.107Z,1.80
2023-05-05T13:21:36.640Z,1.67
2023-05-05T13:24:18.343Z,1.85
2023-05-05T13:26:51.380Z,1.60
2023-05-05T13:29:18.670Z,1.70
2023-05-05T13:31:45.804Z,1.60
2023-05-05T13:34:12.401Z,1.63
2023-05-05T13:36:38.834Z,1.60
2023-05-05T13:39:05.318Z,1.70
2023-05-05T13:41:31.725Z,1.50
2023-05-05T13:43:58.158Z,1.38
2023-05-05T13:46:24.678Z,1.27
2023-05-05T13:48:56.069Z,1.73
2023-05-05T13:51:22.985Z,2.72
2023-05-05T13:53:49.609Z,1.88
2023-05-05T13:56:17.760Z,2.00
2023-05-05T13:58:44.208Z,2.58
2023-05-05T14:01:10.978Z,2.10
2023-05-05T14:03:39.460Z,1.90
2023-05-05T14:06:06.890Z,1.88
2023-05-05T14:08:33.543Z,1.92
2023-05-05T14:11:00.005Z,1.90
2023-05-05T14:13:26.639Z,1.92
2023-05-05T14:15:53.713Z,2.00
2023-05-05T14:18:20.752Z,1.58
2023-05-05T14:20:47.250Z,1.48
2023-05-05T14:23:13.664Z,1.80
2023-05-05T14:25:40.129Z,1.92
2023-05-05T14:28:07.141Z,1.98
2023-05-05T14:30:33.718Z,2.17
2023-05-05T14:33:01.268Z,2.70
2023-05-05T14:35:27.909Z,1.80
2023-05-05T14:37:54.322Z,1.75
2023-05-05T14:40:20.874Z,1.55
2023-05-05T14:42:47.301Z,1.45
2023-05-05T14:45:13.826Z,1.60
2023-05-05T14:47:40.351Z,1.70
2023-05-05T14:50:09.624Z,1.65
2023-05-05T14:52:40.214Z,1.60
2023-05-05T14:55:07.997Z,1.40
2023-05-05T14:57:34.780Z,1.90
2023-05-05T15:00:01.394Z,1.30
2023-05-05T15:02:27.894Z,1.23
2023-05-05T15:04:54.415Z,1.45
2023-05-05T15:07:22.513Z,1.33
2023-05-05T15:09:48.987Z,1.40
2023-05-05T15:12:15.493Z,1.38
2023-05-05T15:14:42.178Z,1.40
2023-05-05T15:17:08.644Z,1.42
2023-05-05T15:19:35.066Z,1.27
2023-05-05T15:22:01.544Z,1.35
2023-05-05T15:24:28.118Z,1.77
2023-05-05T15:26:54.647Z,1.60
2023-05-05T15:29:21.444Z,3.63
2023-05-05T15:31:47.915Z,1.77
2023-05-05T15:34:14.468Z,1.55
2023-05-05T15:36:40.879Z,2.13
2023-05-05T15:39:07.365Z,2.25
2023-05-05T15:41:34.224Z,1.85
2023-05-05T15:44:02.032Z,2.05
2023-05-05T15:46:31.638Z,1.88
2023-05-05T15:48:58.151Z,3.13
2023-05-05T15:51:24.614Z,2.70
2023-05-05T15:53:52.310Z,2.08
2023-05-05T15:56:19.160Z,2.97
2023-05-05T15:58:45.691Z,2.70
2023-05-05T16:01:12.294Z,2.92
2023-05-05T16:03:38.787Z,2.65
2023-05-05T16:06:05.402Z,3.50
2023-05-05T16:08:32.066Z,2.47
2023-05-05T16:10:58.483Z,2.70
2023-05-05T16:13:24.914Z,2.75
2023-05-05T16:15:51.393Z,2.75
2023-05-05T16:18:17.843Z,2.15
2023-05-05T16:20:44.426Z,1.90
2023-05-05T16:23:10.969Z,2.67
2023-05-05T16:25:37.694Z,3.10
2023-05-05T16:28:04.476Z,3.03
2023-05-05T16:30:30.988Z,3.63
2023-05-05T16:32:57.591Z,3.63
2023-05-05T16:35:24.021Z,3.30
2023-05-05T16:37:50.535Z,4.25
2023-05-05T16:40:17.104Z,3.55
2023-05-05T16:42:44.561Z,2.85
2023-05-05T16:45:11.668Z,2.90
2023-05-05T16:47:38.347Z,2.50
2023-05-05T16:50:05.519Z,2.50
2023-05-05T16:52:31.966Z,2.50
2023-05-05T16:54:58.502Z,2.15
2023-05-05T16:57:25.010Z,1.65
2023-05-05T16:59:54.465Z,2.10
2023-05-05T17:02:21.105Z,1.92
2023-05-05T17:04:47.634Z,1.60
2023-05-05T17:07:14.143Z,2.17
2023-05-05T17:09:40.594Z,1.90
2023-05-05T17:12:07.230Z,1.95
2023-05-05T17:14:33.815Z,1.88
2023-05-05T17:17:00.315Z,5.25
2023-05-05T17:19:26.725Z,2.13
2023-05-05T17:21:54.203Z,2.47
2023-05-05T17:24:21.022Z,2.42
2023-05-05T17:26:47.544Z,2.30
2023-05-05T17:29:15.222Z,2.22
2023-05-05T17:31:41.953Z,4.18
2023-05-05T17:34:08.507Z,1.92
2023-05-05T17:36:35.451Z,2.50
2023-05-05T17:39:02.040Z,2.63
2023-05-05T17:41:28.459Z,1.90
2023-05-05T17:43:55.670Z,2.35
2023-05-05T17:46:22.260Z,1.80
2023-05-05T17:48:48.828Z,2.05
2023-05-05T17:51:15.381Z,1.88
2023-05-05T17:53:41.874Z,2.22
2023-05-05T17:56:09.034Z,2.20
2023-05-05T17:58:35.794Z,2.17
2023-05-05T18:01:02.281Z,2.08
2023-05-05T18:03:28.895Z,2.65
2023-05-05T18:05:56.026Z,2.25
2023-05-05T18:08:22.566Z,2.45
2023-05-05T18:10:49.224Z,2.60
2023-05-05T18:13:15.869Z,2.88
2023-05-05T18:15:42.416Z,2.53
2023-05-05T18:18:08.967Z,3.38
2023-05-05T18:20:35.456Z,2.92
2023-05-05T18:23:01.909Z,2.67
2023-05-05T18:25:28.377Z,2.72
2023-05-05T18:27:54.839Z,2.63
2023-05-05T18:30:21.375Z,3.38
2023-05-05T18:32:48.653Z,2.88
2023-05-05T18:35:15.560Z,2.65
2023-05-05T18:37:42.201Z,2.35
2023-05-05T18:40:09.967Z,2.33
2023-05-05T18:42:36.539Z,2.20
2023-05-05T18:45:03.176Z,1.90
2023-05-05T18:47:29.697Z,2.15
2023-05-05T18:49:56.348Z,2.22
2023-05-05T18:52:22.916Z,2.05
2023-05-05T18:54:49.474Z,2.08
2023-05-05T18:57:16.183Z,2.50
2023-05-05T18:59:42.662Z,2.53
2023-05-05T19:02:09.115Z,2.30
2023-05-05T19:04:37.823Z,2.30
2023-05-05T19:07:04.758Z,1.75
2023-05-05T19:09:31.351Z,2.38
2023-05-05T19:11:57.875Z,2.42
2023-05-05T19:14:24.389Z,2.13
2023-05-05T19:16:51.227Z,2.80
2023-05-05T19:19:18.124Z,2.60
2023-05-05T19:21:44.638Z,2.50
2023-05-05T19:24:11.816Z,2.47
2023-05-05T19:26:40.814Z,2.85
2023-05-05T19:29:07.350Z,3.03
2023-05-05T19:31:33.868Z,3.33
2023-05-05T19:34:02.313Z,2.85
2023-05-05T19:36:31.598Z,3.05
2023-05-05T19:39:01.582Z,3.70
2023-05-05T19:41:28.982Z,3.50
2023-05-05T19:43:55.536Z,4.05
2023-05-05T19:46:24.172Z,3.90
2023-05-05T19:48:50.587Z,4.60
2023-05-05T19:51:17.040Z,4.22
2023-05-05T19:53:43.823Z,4.50
2023-05-05T19:56:10.401Z,3.90
2023-05-05T19:58:57.193Z,3.90
2023-05-05T20:01:24.175Z,3.65
2023-05-05T20:03:52.260Z,4.05
2023-05-05T20:06:18.738Z,3.70
2023-05-05T20:08:45.297Z,3.80
2023-05-05T20:11:12.110Z,3.22
2023-05-05T20:13:39.011Z,3.92
2023-05-05T20:16:06.196Z,3.60
2023-05-05T20:18:33.073Z,3.47
2023-05-05T20:20:59.880Z,3.88
2023-05-05T20:23:26.912Z,3.17
2023-05-05T20:25:54.474Z,4.55
2023-05-05T20:28:21.048Z,3.70
2023-05-05T20:30:47.543Z,5.20
2023-05-05T20:33:13.969Z,3.60
2023-05-05T20:35:40.518Z,3.63
2023-05-05T20:38:07.016Z,3.13
2023-05-05T20:40:33.572Z,2.65
2023-05-05T20:43:00.210Z,2.63
2023-05-05T20:45:26.746Z,2.35
2023-05-05T20:47:53.386Z,2.38
2023-05-05T20:50:22.564Z,2.10
2023-05-05T20:52:49.513Z,2.13
2023-05-05T20:55:16.215Z,2.20
2023-05-05T20:57:42.636Z,3.33
2023-05-05T21:00:09.667Z,3.55
2023-05-05T21:02:36.464Z,3.00
2023-05-05T21:05:03.270Z,2.58
2023-05-05T21:07:31.145Z,2.35
2023-05-05T21:09:57.719Z,2.08
2023-05-05T21:12:24.148Z,3.05
2023-05-05T21:14:50.620Z,3.60
2023-05-05T21:17:17.047Z,3.28
2023-05-05T21:19:43.456Z,2.30
2023-05-05T21:22:09.914Z,2.40
2023-05-05T21:24:38.131Z,2.47
2023-05-05T21:27:04.612Z,1.98
2023-05-05T21:29:37.334Z,3.15
2023-05-05T21:32:08.276Z,3.10
2023-05-05T21:34:35.185Z,2.50
2023-05-05T21:37:01.726Z,2.35
2023-05-05T21:39:29.224Z,2.58
2023-05-05T21:41:55.658Z,3.47
2023-05-05T21:44:22.266Z,2.70
2023-05-05T21:46:48.771Z,2.05
2023-05-05T21:49:16.767Z,2.30
2023-05-05T21:51:44.274Z,3.75
2023-05-05T21:54:11.316Z,2.58
2023-05-05T21:56:38.003Z,3.10
2023-05-05T21:59:05.528Z,2.03
2023-05-05T22:01:32.291Z,3.15
2023-05-05T22:03:59.045Z,2.60
2023-05-05T22:06:25.672Z,3.00
2023-05-05T22:08:52.132Z,1.83
2023-05-05T22:11:18.848Z,1.88
2023-05-05T22:13:46.420Z,1.52
2023-05-05T22:16:15.896Z,1.42
2023-05-05T22:18:42.315Z,2.55
2023-05-05T22:21:08.915Z,2.50
2023-05-05T22:23:37.039Z,2.22
2023-05-05T22:26:04.735Z,2.65
2023-05-05T22:28:31.201Z,2.63
2023-05-05T22:30:57.611Z,2.75
2023-05-05T22:33:24.343Z,2.33
2023-05-05T22:35:51.922Z,2.20
2023-05-05T22:38:18.514Z,1.95
2023-05-05T22:40:45.358Z,2.00
2023-05-05T22:43:11.957Z,1.45
2023-05-05T22:45:38.462Z,1.42
2023-05-05T22:48:05.439Z,4.13
2023-05-05T22:50:32.059Z,3.83
2023-05-05T22:52:58.566Z,4.72
2023-05-05T22:55:25.174Z,4.00
2023-05-05T22:57:52.515Z,2.50
2023-05-05T23:00:19.414Z,2.25
2023-05-05T23:02:45.926Z,1.65
2023-05-05T23:05:12.742Z,1.90
2023-05-05T23:07:39.335Z,1.95
2023-05-05T23:10:06.304Z,1.90
2023-05-05T23:12:33.033Z,1.52
2023-05-05T23:14:59.560Z,1.58
2023-05-05T23:17:26.087Z,1.88
2023-05-05T23:19:52.735Z,1.30
2023-05-05T23:22:19.165Z,1.95
2023-05-05T23:24:45.690Z,1.30
2023-05-05T23:27:13.159Z,1.40
2023-05-05T23:29:39.642Z,2.33
2023-05-05T23:32:06.326Z,2.00
2023-05-05T23:34:32.824Z,1.65
2023-05-05T23:36:59.424Z,1.58
2023-05-05T23:39:25.829Z,2.00
2023-05-05T23:41:52.347Z,2.45
2023-05-05T23:44:18.964Z,1.92
2023-05-05T23:46:45.402Z,2.78
2023-05-05T23:49:11.834Z,2.38
2023-05-05T23:51:38.292Z,3.35
2023-05-05T23:54:04.792Z,2.85
2023-05-05T23:56:31.263Z,2.55
2023-05-05T23:58:57.713Z,2.63
